Time;durP1;ratioP1;P1;durP2;ratioP2;P2;SDS_P1;SDS_P2;PMS_P1;PMS_P2;Temp;Humidity;BMP_temperature;BMP_pressure;BME280_temperature;BME280_humidity;BME280_pressure;Samples;Min_cycle;Max_cycle;Signal;HPM_P1;HPM_P2
2022/07/21 00:00:17;;;;;;;11.18;8.32;;;22.80;99.90;;;20.28;100.00;100756.19;5030806;28;20045;-77
2022/07/21 00:02:45;;;;;;;12.10;8.75;;;22.80;99.90;;;20.27;100.00;100760.00;5031711;28;20044;-77
2022/07/21 00:05:12;;;;;;;14.88;8.98;;;22.70;99.90;;;20.30;100.00;100764.25;5031521;28;20119;-77
2022/07/21 00:07:40;;;;;;;12.95;8.93;;;22.80;99.90;;;20.28;100.00;100760.88;5031714;28;20045;-77
2022/07/21 00:10:09;;;;;;;13.98;8.43;;;22.70;99.90;;;20.28;100.00;100753.41;5031054;28;20042;-77
2022/07/21 00:12:36;;;;;;;14.80;9.57;;;22.70;99.90;;;20.29;100.00;100754.25;5013893;28;20053;-77
2022/07/21 00:15:05;;;;;;;18.58;8.60;;;22.70;99.90;;;20.26;100.00;100755.59;5031490;28;20038;-77
2022/07/21 00:17:34;;;;;;;12.13;9.18;;;22.70;99.90;;;20.24;100.00;100756.94;5014977;28;20041;-77
2022/07/21 00:20:02;;;;;;;13.93;9.05;;;22.70;99.90;;;20.21;100.00;100744.41;5010885;28;20042;-77
2022/07/21 00:22:29;;;;;;;16.05;8.50;;;22.70;99.90;;;20.21;100.00;100741.66;5011858;28;20044;-77
2022/07/21 00:24:58;;;;;;;13.10;8.38;;;22.70;99.90;;;20.22;100.00;100731.44;4993533;28;20494;-77
2022/07/21 00:27:25;;;;;;;14.18;9.20;;;22.60;99.90;;;20.17;100.00;100717.53;5011609;28;20475;-77
2022/07/21 00:29:52;;;;;;;13.52;9.02;;;22.60;99.90;;;20.14;100.00;100718.00;5010495;28;20144;-77
2022/07/21 00:32:20;;;;;;;15.25;9.38;;;22.60;99.90;;;20.11;100.00;100713.81;5011365;28;20129;-77
2022/07/21 00:34:47;;;;;;;14.43;9.48;;;22.60;99.90;;;20.07;100.00;100712.63;5011338;28;20577;-77
2022/07/21 00:37:14;;;;;;;13.85;8.93;;;22.60;99.90;;;20.05;100.00;100703.72;5011324;28;20053;-77
2022/07/21 00:39:41;;;;;;;14.75;8.98;;;22.60;99.90;;;20.01;100.00;100702.50;5010645;28;20041;-77
2022/07/21 00:42:22;;;;;;;14.57;9.45;;;22.60;99.90;;;19.99;100.00;100708.31;5011428;28;20044;-77
2022/07/21 00:44:50;;;;;;;14.15;9.77;;;22.50;99.90;;;20.01;100.00;100713.56;5011254;28;20133;-77
2022/07/21 00:47:20;;;;;;;13.00;9.45;;;22.50;99.90;;;20.02;100.00;100718.03;5011312;28;20048;-77
2022/07/21 00:49:48;;;;;;;14.43;9.68;;;22.50;99.90;;;19.99;100.00;100715.72;5010309;28;20041;-77
2022/07/21 00:52:15;;;;;;;12.00;8.50;;;22.50;99.90;;;19.99;100.00;100716.59;5011200;28;20077;-77
2022/07/21 00:54:43;;;;;;;15.55;9.02;;;22.50;99.90;;;19.98;100.00;100728.72;5011014;28;20045;-77
2022/07/21 00:57:12;;;;;;;13.30;9.10;;;22.50;99.90;;;19.99;100.00;100722.13;5010984;28;20864;-77
2022/07/21 00:59:40;;;;;;;12.00;9.38;;;22.50;99.90;;;19.97;100.00;100723.41;5010067;28;20046;-77
2022/07/21 01:02:07;;;;;;;12.85;9.10;;;22.50;99.90;;;19.85;100.00;100724.28;5010875;28;20050;-77
2022/07/21 01:04:34;;;;;;;16.92;10.20;;;22.40;99.90;;;19.86;100.00;100720.44;5010716;28;20117;-77
2022/07/21 01:07:03;;;;;;;10.50;8.50;;;22.40;99.90;;;19.85;100.00;100727.03;5010766;28;20041;-77
2022/07/21 01:09:32;;;;;;;14.43;9.60;;;22.40;99.90;;;19.82;100.00;100721.16;5009933;28;20122;-77
2022/07/21 01:12:00;;;;;;;13.40;9.27;;;22.30;99.90;;;19.88;100.00;100725.72;5010725;28;20467;-77
2022/07/21 01:14:29;;;;;;;15.75;9.00;;;22.30;99.90;;;19.91;100.00;100728.84;5010733;28;20046;-77
2022/07/21 01:16:57;;;;;;;12.40;9.40;;;22.40;99.90;;;19.89;100.00;100733.75;5010892;28;20221;-77
2022/07/21 01:19:24;;;;;;;15.05;9.45;;;22.30;99.90;;;19.90;100.00;100723.56;5009849;28;20041;-77
2022/07/21 01:21:52;;;;;;;13.13;9.50;;;22.30;99.90;;;19.87;100.00;100729.56;5010715;28;20121;-76
2022/07/21 01:24:20;;;;;;;13.02;9.32;;;22.30;99.90;;;19.84;100.00;100730.06;4992785;28;20445;-77
2022/07/21 01:26:50;;;;;;;15.82;9.30;;;22.30;99.90;;;19.83;100.00;100729.19;5010470;28;20490;-77
2022/07/21 01:29:18;;;;;;;16.55;10.07;;;22.30;99.90;;;19.81;100.00;100731.38;4992064;28;20049;-77
2022/07/21 01:31:49;;;;;;;14.02;10.52;;;22.30;99.90;;;19.81;100.00;100745.16;5010438;28;20045;-77
2022/07/21 01:34:17;;;;;;;14.18;9.70;;;22.30;99.90;;;19.80;100.00;100761.97;4992842;28;20057;-77
2022/07/21 01:36:45;;;;;;;15.32;10.02;;;22.30;99.90;;;19.78;100.00;100759.47;5009751;28;20053;-77
2022/07/21 01:41:59;;;;;;;18.83;10.75;;;22.20;99.90;;;19.73;100.00;100762.94;5011284;28;20057;-77
2022/07/21 01:44:26;;;;;;;16.98;11.55;;;22.20;99.90;;;19.75;100.00;100759.94;5028228;28;20053;-77
2022/07/21 01:46:54;;;;;;;16.00;10.93;;;22.20;99.90;;;19.64;100.00;100763.50;5030126;28;20478;-77
2022/07/21 01:49:22;;;;;;;16.15;10.40;;;22.20;99.90;;;19.67;100.00;100757.53;5029186;28;20417;-77
2022/07/21 01:51:50;;;;;;;14.35;9.40;;;22.10;99.90;;;19.64;100.00;100761.56;5030132;28;20056;-77
2022/07/21 01:54:19;;;;;;;13.02;8.60;;;22.20;99.90;;;19.57;100.00;100749.81;5029996;28;20041;-76
2022/07/21 01:56:46;;;;;;;17.67;8.55;;;22.10;99.90;;;19.59;100.00;100750.44;5029970;28;20514;-76
2022/07/21 01:59:13;;;;;;;16.73;8.85;;;22.10;99.90;;;19.51;100.00;100748.00;5029039;28;20410;-76
2022/07/21 02:01:40;;;;;;;13.63;8.48;;;22.10;99.90;;;19.40;100.00;100746.94;5029718;28;20046;-77
2022/07/21 02:04:07;;;;;;;14.77;9.15;;;22.00;99.90;;;19.31;100.00;100743.66;5029717;28;20044;-77
2022/07/21 02:06:35;;;;;;;12.65;8.75;;;22.00;99.90;;;19.33;100.00;100746.19;5029722;28;20084;-76
2022/07/21 02:09:02;;;;;;;11.88;7.85;;;22.00;99.90;;;19.28;100.00;100748.81;5028770;28;20049;-77
2022/07/21 02:11:31;;;;;;;11.70;7.72;;;22.00;99.90;;;19.29;100.00;100748.56;5029524;28;20046;-77
2022/07/21 02:13:58;;;;;;;10.70;7.45;;;21.90;99.90;;;19.24;100.00;100748.44;5029726;28;20052;-77
2022/07/21 02:16:25;;;;;;;9.93;7.10;;;21.90;99.90;;;19.24;100.00;100750.38;5029668;28;20037;-77
2022/07/21 02:18:53;;;;;;;10.57;7.07;;;21.80;99.90;;;19.22;100.00;100750.59;5028843;28;20050;-76
2022/07/21 02:21:20;;;;;;;15.52;7.47;;;21.80;99.90;;;19.22;100.00;100750.59;5012993;28;20042;-76
2022/07/21 02:23:47;;;;;;;11.10;7.40;;;21.80;99.90;;;19.27;100.00;100742.47;5010048;28;20070;-77
2022/07/21 02:26:14;;;;;;;13.32;8.07;;;21.80;99.90;;;19.27;100.00;100744.38;5009763;28;20060;-76
2022/07/21 02:28:43;;;;;;;13.73;8.27;;;21.80;99.90;;;19.26;100.00;100750.97;5009164;28;20060;-76
2022/07/21 02:31:10;;;;;;;12.70;8.13;;;21.80;99.90;;;19.25;100.00;100743.78;5009641;28;20073;-76
2022/07/21 02:33:37;;;;;;;11.25;7.90;;;21.80;99.90;;;19.24;100.00;100748.44;5009772;28;20042;-77
2022/07/21 02:36:05;;;;;;;14.52;8.77;;;21.80;99.90;;;19.18;100.00;100743.88;5009824;28;20056;-77
2022/07/21 02:38:33;;;;;;;11.70;7.70;;;21.80;99.90;;;19.24;100.00;100731.88;5008966;28;20113;-77
2022/07/21 02:41:00;;;;;;;12.98;7.80;;;21.70;99.90;;;19.18;100.00;100732.00;5009595;28;20053;-77
2022/07/21 02:43:27;;;;;;;11.55;7.40;;;21.80;99.90;;;19.20;100.00;100736.19;5009611;28;20049;-77
2022/07/21 02:45:55;;;;;;;10.65;7.70;;;21.80;99.90;;;19.17;100.00;100736.66;5009483;28;20046;-76
2022/07/21 02:48:22;;;;;;;11.40;7.40;;;21.70;99.90;;;19.12;100.00;100725.50;5012761;28;20391;-77
2022/07/21 02:50:50;;;;;;;11.00;7.35;;;21.70;99.90;;;19.11;100.00;100730.19;4995583;28;20524;-76
2022/07/21 02:53:19;;;;;;;9.32;6.45;;;21.70;99.90;;;19.08;100.00;100722.38;5013653;28;20057;-76
2022/07/21 02:55:48;;;;;;;10.65;7.10;;;21.70;99.90;;;19.10;100.00;100724.91;5013543;28;20050;-76
2022/07/21 02:58:18;;;;;;;11.45;7.28;;;21.70;99.90;;;19.09;100.00;100724.03;5012872;28;20068;-76
2022/07/21 03:00:50;;;;;;;10.38;7.53;;;21.70;99.90;;;19.08;100.00;100741.69;5013150;28;20069;-77
2022/07/21 03:03:20;;;;;;;11.63;7.43;;;21.70;99.90;;;19.08;100.00;100738.94;5013210;28;20073;-76
2022/07/21 03:05:47;;;;;;;12.27;6.80;;;21.70;99.90;;;19.07;100.00;100736.41;5012936;28;20050;-77
2022/07/21 03:08:15;;;;;;;10.98;7.47;;;21.60;99.90;;;19.06;100.00;100723.69;5012619;28;20060;-77
2022/07/21 03:10:43;;;;;;;13.00;7.88;;;21.60;99.90;;;19.06;100.00;100726.47;5012363;28;20049;-77
2022/07/21 03:13:10;;;;;;;10.52;7.75;;;21.60;99.90;;;19.04;100.00;100721.16;5012913;28;20053;-77
2022/07/21 03:15:38;;;;;;;12.00;7.53;;;21.60;99.90;;;19.03;100.00;100725.00;5012799;28;20396;-77
2022/07/21 03:18:05;;;;;;;11.27;7.95;;;21.60;99.90;;;19.00;100.00;100728.25;5012864;28;20046;-77
2022/07/21 03:20:36;;;;;;;11.52;7.90;;;21.60;99.90;;;18.98;100.00;100727.59;5012224;28;20723;-77
2022/07/21 03:23:05;;;;;;;13.57;8.93;;;21.60;99.90;;;18.96;100.00;100724.25;5012998;28;20066;-77
2022/07/21 03:25:32;;;;;;;11.45;8.27;;;21.50;99.90;;;18.95;100.00;100717.06;5012704;28;20042;-77
2022/07/21 03:27:59;;;;;;;11.80;8.43;;;21.60;99.90;;;18.95;100.00;100714.31;5012771;28;20046;-77
2022/07/21 03:30:28;;;;;;;13.90;8.95;;;21.60;99.90;;;18.95;100.00;100709.63;5011852;28;20129;-77
2022/07/21 03:32:56;;;;;;;12.98;8.82;;;21.60;99.90;;;18.97;100.00;100714.91;5012558;28;20046;-77
2022/07/21 03:35:24;;;;;;;14.13;9.38;;;21.50;99.90;;;18.99;100.00;100707.25;5012499;28;20117;-77
2022/07/21 03:37:55;;;;;;;13.68;9.00;;;21.50;99.90;;;18.99;100.00;100707.25;5012384;28;20049;-77
2022/07/21 03:40:29;;;;;;;10.88;8.35;;;21.60;99.90;;;18.99;100.00;100704.47;4993910;28;20141;-77
2022/07/21 03:42:59;;;;;;;12.13;8.60;;;21.50;99.90;;;18.99;100.00;100703.66;5012421;28;20073;-77
2022/07/21 03:45:30;;;;;;;12.93;9.40;;;21.50;99.90;;;18.99;100.00;100711.91;5012246;28;20042;-77
2022/07/21 03:47:58;;;;;;;15.27;9.85;;;21.50;99.90;;;19.00;100.00;100708.94;5012301;28;20129;-77
2022/07/21 03:50:25;;;;;;;11.02;8.57;;;21.50;99.90;;;19.03;100.00;100702.09;5022087;28;20041;-78
2022/07/21 03:52:54;;;;;;;12.27;8.20;;;21.50;99.90;;;19.03;100.00;100693.81;5032055;28;20068;-77
2022/07/21 03:55:22;;;;;;;12.45;9.10;;;21.50;99.90;;;19.00;100.00;100691.53;5031976;28;20054;-77
2022/07/21 03:57:52;;;;;;;12.35;9.18;;;21.50;99.90;;;18.96;100.00;100680.13;5031449;28;20050;-77
2022/07/21 04:00:23;;;;;;;14.40;8.75;;;21.50;99.90;;;18.97;100.00;100676.28;5031204;28;20049;-77
2022/07/21 04:02:50;;;;;;;15.83;9.60;;;21.50;99.90;;;18.97;100.00;100668.03;5031826;28;20575;-77
2022/07/21 04:05:19;;;;;;;15.18;9.00;;;21.50;99.90;;;18.96;100.00;100674.59;5057067;22;20040;-80
2022/07/21 04:07:49;;;;;;;12.45;8.38;;;21.50;99.90;;;18.89;100.00;100662.84;5091827;28;20044;-80
2022/07/21 04:10:20;;;;;;;10.65;8.57;;;21.50;99.90;;;18.87;100.00;100665.84;5072486;28;20488;-80
2022/07/21 04:12:47;;;;;;;13.35;9.10;;;21.50;99.90;;;18.83;100.00;100658.25;5091769;28;20122;-80
2022/07/21 04:15:15;;;;;;;14.55;9.60;;;21.40;99.90;;;18.83;100.00;100664.63;5068587;28;20053;-80
2022/07/21 04:17:42;;;;;;;12.30;9.15;;;21.40;99.90;;;18.73;100.00;100656.91;5053302;28;20507;-80
2022/07/21 04:20:12;;;;;;;13.35;9.60;;;21.40;99.90;;;18.75;100.00;100653.88;5070417;28;20041;-80
2022/07/21 04:22:39;;;;;;;15.88;10.38;;;21.40;99.90;;;18.82;100.00;100659.34;5071046;28;20044;-80
2022/07/21 04:25:08;;;;;;;17.45;11.13;;;21.40;99.90;;;18.89;100.00;100658.16;5071411;28;20044;-80
2022/07/21 04:27:37;;;;;;;15.43;11.20;;;21.40;99.90;;;18.86;100.00;100653.13;5071368;28;20047;-80
2022/07/21 04:30:07;;;;;;;16.35;11.10;;;21.40;99.90;;;18.96;100.00;100658.06;5070466;28;20036;-80
2022/07/21 04:32:35;;;;;;;14.23;10.77;;;21.40;99.90;;;19.07;100.00;100671.03;5071240;28;20146;-80
2022/07/21 04:35:02;;;;;;;16.88;11.35;;;21.40;99.90;;;19.12;100.00;100668.41;5071159;28;20059;-80
2022/07/21 04:37:29;;;;;;;18.77;11.82;;;21.40;99.90;;;19.14;100.00;100669.00;5069711;28;20518;-80
2022/07/21 04:39:57;;;;;;;17.52;11.85;;;21.40;99.90;;;19.18;100.00;100672.13;5069981;28;20041;-80
2022/07/21 04:42:24;;;;;;;18.95;12.93;;;21.40;99.90;;;19.17;100.00;100664.09;5070746;28;20113;-80
2022/07/21 04:44:53;;;;;;;21.60;12.02;;;21.40;99.90;;;19.09;100.00;100668.88;5069455;28;20048;-80
2022/07/21 04:47:20;;;;;;;13.80;11.43;;;21.40;99.90;;;19.06;100.00;100674.88;5069587;28;20131;-80
2022/07/21 04:49:47;;;;;;;18.83;13.07;;;21.40;99.90;;;19.09;100.00;100674.38;5069915;28;20120;-80
2022/07/21 04:52:14;;;;;;;20.70;13.65;;;21.40;99.90;;;19.18;100.00;100674.06;5070577;28;20076;-80
2022/07/21 04:54:42;;;;;;;20.65;13.45;;;21.50;99.90;;;19.17;100.00;100669.59;5070743;28;20071;-80
2022/07/21 04:57:09;;;;;;;19.35;15.00;;;21.50;99.90;;;19.17;100.00;100672.38;5069324;28;20055;-80
2022/07/21 04:59:36;;;;;;;18.88;14.52;;;21.50;99.90;;;19.22;100.00;100678.03;5068513;28;20062;-80
2022/07/21 05:02:06;;;;;;;21.00;15.05;;;21.50;99.90;;;19.33;100.00;100675.25;5070676;28;20052;-80
2022/07/21 05:04:33;;;;;;;23.73;16.20;;;21.50;99.90;;;19.35;100.00;100675.03;5070679;28;20123;-80
2022/07/21 05:07:00;;;;;;;23.55;15.80;;;21.50;99.90;;;19.37;100.00;100670.09;5070390;28;20045;-80
2022/07/21 05:09:27;;;;;;;20.83;15.38;;;21.50;99.90;;;19.42;100.00;100678.53;5069179;28;20044;-80
2022/07/21 05:11:54;;;;;;;22.80;15.65;;;21.50;99.90;;;19.49;100.00;100673.69;5069943;28;20063;-80
2022/07/21 05:14:21;;;;;;;22.55;15.63;;;21.50;99.90;;;19.58;100.00;100687.16;5070339;28;20044;-80
2022/07/21 05:16:49;;;;;;;19.42;15.40;;;21.50;99.90;;;19.54;100.00;100682.13;5070196;28;20115;-80
2022/07/21 05:19:17;;;;;;;21.50;15.35;;;21.60;99.90;;;19.48;100.00;100683.06;5068062;28;20405;-80
2022/07/21 05:21:45;;;;;;;21.17;16.33;;;21.50;99.90;;;19.45;100.00;100689.06;5070062;28;20047;-80
2022/07/21 05:24:12;;;;;;;24.98;16.55;;;21.50;99.90;;;19.41;100.00;100693.38;5070048;28;20040;-80
2022/07/21 05:26:39;;;;;;;20.80;16.40;;;21.50;99.90;;;19.46;100.00;100698.22;5070160;28;20493;-80
2022/07/21 05:29:06;;;;;;;21.30;15.98;;;21.50;99.90;;;19.49;100.00;100701.31;5069475;28;20048;-80
2022/07/21 05:31:39;;;;;;;19.98;16.45;;;21.60;99.90;;;19.52;100.00;100697.25;5070093;28;20115;-80
2022/07/21 05:34:06;;;;;;;21.98;16.83;;;21.60;99.90;;;19.60;100.00;100698.81;5070308;28;20044;-80
2022/07/21 05:36:35;;;;;;;23.38;16.13;;;21.60;99.90;;;19.56;100.00;100700.38;5070000;28;20052;-80
2022/07/21 05:39:02;;;;;;;21.65;15.95;;;21.60;99.90;;;19.59;100.00;100694.34;5069410;28;20041;-80
2022/07/21 05:41:29;;;;;;;22.40;15.70;;;21.60;99.90;;;19.51;100.00;100690.03;5070078;28;20040;-80
2022/07/21 05:43:56;;;;;;;20.27;14.95;;;21.60;99.90;;;19.52;100.00;100689.78;5070084;28;20055;-80
2022/07/21 05:46:23;;;;;;;19.83;15.73;;;21.60;99.90;;;19.48;100.00;100693.28;5069811;28;20041;-80
2022/07/21 05:48:51;;;;;;;19.30;15.20;;;21.60;99.90;;;19.43;100.00;100695.91;5069180;28;20072;-80
2022/07/21 05:51:18;;;;;;;18.77;15.02;;;21.60;99.90;;;19.46;100.00;100696.28;5069555;28;20052;-80
2022/07/21 05:53:46;;;;;;;18.45;14.48;;;21.60;99.90;;;19.43;100.00;100690.41;5066650;28;20040;-80
2022/07/21 05:56:14;;;;;;;19.92;14.52;;;21.60;99.90;;;19.46;100.00;100685.25;5069722;28;20043;-80
2022/07/21 05:58:41;;;;;;;21.83;15.93;;;21.60;99.90;;;19.49;100.00;100681.97;5050838;28;20439;-80
2022/07/21 06:01:13;;;;;;;20.15;14.07;;;21.60;99.90;;;19.55;100.00;100685.69;5069797;28;20051;-80
2022/07/21 06:03:44;;;;;;;21.88;16.05;;;21.60;99.90;;;19.60;100.00;100687.75;5069752;28;20493;-80
2022/07/21 06:06:12;;;;;;;22.70;15.85;;;21.60;99.90;;;19.68;100.00;100695.69;5069711;28;20135;-80
2022/07/21 06:08:42;;;;;;;18.55;14.60;;;21.60;99.90;;;19.70;100.00;100690.75;5069078;28;20053;-80
2022/07/21 06:11:13;;;;;;;18.75;15.32;;;21.60;99.90;;;19.87;100.00;100694.47;5069643;28;20047;-80
2022/07/21 06:13:41;;;;;;;;;;;21.60;99.90;;;19.95;100.00;100695.19;5052053;28;20041;-80
2022/07/21 06:16:09;;;;;;;17.25;14.05;;;21.70;99.90;;;20.04;100.00;100696.50;5069182;28;19920;-80
2022/07/21 06:18:37;;;;;;;19.23;14.65;;;21.70;99.90;;;20.20;100.00;100694.91;5068800;28;20131;-80
2022/07/21 06:21:05;;;;;;;18.48;13.95;;;21.70;99.90;;;20.42;100.00;100697.84;5069805;28;20043;-80
2022/07/21 06:23:33;;;;;;;18.80;15.05;;;21.70;99.90;;;23.76;100.00;100700.44;5073644;28;20059;-80
2022/07/21 06:26:00;;;;;;;16.70;13.13;;;21.80;99.90;;;23.61;100.00;100704.81;5073551;28;20472;-80
2022/07/21 06:28:28;;;;;;;20.65;13.57;;;22.00;99.90;;;22.32;100.00;100718.50;5072765;28;20340;-80
2022/07/21 06:30:56;;;;;;;19.90;13.35;;;22.00;99.90;;;21.60;100.00;100709.16;5071879;28;20472;-80
2022/07/21 06:33:23;;;;;;;18.13;12.35;;;22.10;99.90;;;21.31;100.00;100707.53;5073514;28;20079;-80
2022/07/21 06:35:50;;;;;;;18.00;13.18;;;22.10;99.90;;;21.06;100.00;100709.63;5073364;28;20493;-80
2022/07/21 06:38:17;;;;;;;16.30;12.35;;;22.20;99.90;;;20.81;100.00;100711.91;5073065;28;20121;-80
2022/07/21 06:40:44;;;;;;;17.73;12.23;;;22.20;99.90;;;20.57;100.00;100711.97;5072991;28;20040;-80
2022/07/21 06:43:12;;;;;;;18.95;11.75;;;22.20;99.90;;;20.57;100.00;100706.44;5073333;28;20036;-80
2022/07/21 06:45:41;;;;;;;20.35;12.48;;;22.10;99.90;;;20.49;100.00;100706.84;5071850;28;20394;-80
2022/07/21 06:48:12;;;;;;;17.48;11.48;;;22.10;99.90;;;20.45;100.00;100709.28;5073099;28;20052;-80
2022/07/21 06:50:39;;;;;;;16.45;13.02;;;22.10;99.90;;;20.54;100.00;100704.16;5072625;28;20047;-80
2022/07/21 06:53:07;;;;;;;19.48;12.82;;;22.10;99.90;;;20.63;100.00;100705.50;5072977;28;20044;-80
2022/07/21 06:55:35;;;;;;;16.45;12.30;;;22.10;99.90;;;20.93;100.00;100712.69;5072914;28;20113;-80
2022/07/21 06:58:11;;;;;;;16.70;12.02;;;22.10;99.90;;;21.41;100.00;100705.75;5072845;28;20491;-80
2022/07/21 07:00:39;;;;;;;18.65;11.95;;;22.20;99.90;;;21.88;100.00;100703.75;5072339;28;20044;-80
2022/07/21 07:03:08;;;;;;;15.05;11.88;;;22.30;99.90;;;21.83;100.00;100705.31;5072855;28;20045;-80
2022/07/21 07:05:35;;;;;;;14.80;10.70;;;22.40;99.90;;;21.84;100.00;100704.25;5072721;28;20059;-80
2022/07/21 07:08:03;;;;;;;17.00;11.15;;;22.40;99.90;;;22.19;100.00;100711.38;5072847;28;20560;-80
2022/07/21 07:10:30;;;;;;;16.75;10.57;;;22.50;99.90;;;22.37;100.00;100712.16;5071965;28;20453;-80
2022/07/21 07:12:58;;;;;;;18.17;12.35;;;22.60;99.90;;;22.49;100.00;100714.81;5072771;28;20147;-80
2022/07/21 07:15:26;;;;;;;15.35;11.32;;;22.70;99.90;;;22.67;100.00;100714.47;5072719;28;20086;-80
2022/07/21 07:17:54;;;;;;;17.88;10.00;;;22.70;99.90;;;22.82;100.00;100717.41;5072692;28;20079;-80
2022/07/21 07:20:24;;;;;;;13.35;10.27;;;22.80;99.90;;;22.64;100.00;100721.38;5071795;28;20048;-80
2022/07/21 07:22:52;;;;;;;17.35;10.27;;;22.90;99.90;;;22.37;100.00;100724.13;5072534;28;20453;-80
2022/07/21 07:25:19;;;;;;;13.25;10.48;;;22.90;99.90;;;22.15;100.00;100737.94;5072356;28;20047;-80
2022/07/21 07:27:50;;;;;;;15.80;10.38;;;23.00;99.90;;;22.01;100.00;100736.63;5072404;28;20040;-80
2022/07/21 07:30:18;;;;;;;13.10;10.27;;;22.90;99.90;;;21.83;100.00;100735.81;5071554;28;20044;-80
2022/07/21 07:32:47;;;;;;;15.13;10.95;;;22.90;99.90;;;21.91;100.00;100736.47;5071306;28;20141;-80
2022/07/21 07:35:14;;;;;;;15.25;10.07;;;22.90;99.90;;;21.98;100.00;100742.69;5071938;28;20049;-80
2022/07/21 07:37:46;;;;;;;14.45;9.65;;;23.00;99.90;;;21.83;100.00;100738.56;5072268;28;20049;-80
2022/07/21 07:40:16;;;;;;;13.77;9.80;;;23.00;99.90;;;21.78;100.00;100730.22;5070102;28;20071;-80
2022/07/21 07:42:44;;;;;;;14.13;9.77;;;22.90;99.90;;;21.92;100.00;100724.31;5072282;28;20054;-80
2022/07/21 07:45:12;;;;;;;15.18;9.35;;;23.00;99.90;;;22.25;100.00;100715.06;5070750;28;20409;-80
2022/07/21 07:47:40;;;;;;;14.02;9.52;;;23.00;99.90;;;22.64;100.00;100706.69;5072045;28;20043;-80
2022/07/21 07:50:10;;;;;;;12.90;9.82;;;23.00;99.90;;;22.77;100.00;100710.97;5071233;28;20033;-80
2022/07/21 07:52:38;;;;;;;17.07;9.97;;;23.10;99.90;;;22.90;100.00;100721.63;5072010;28;20481;-80
2022/07/21 07:55:10;;;;;;;14.10;9.45;;;23.10;99.90;;;22.99;100.00;100716.47;5071876;28;20286;-80
2022/07/21 07:57:38;;;;;;;15.48;10.18;;;23.20;99.90;;;22.84;100.00;100715.19;5069119;28;20044;-80
2022/07/21 08:00:08;;;;;;;17.25;9.77;;;23.20;99.90;;;22.72;100.00;100720.06;5070904;28;20044;-80
2022/07/21 08:02:39;;;;;;;13.07;9.68;;;23.20;99.90;;;22.62;100.00;100731.91;5071745;28;20052;-80
2022/07/21 08:05:08;;;;;;;13.73;9.07;;;23.20;99.90;;;22.61;100.00;100727.44;5071499;28;20415;-80
2022/07/21 08:07:37;;;;;;;12.52;8.27;;;23.20;99.90;;;22.92;100.00;100718.59;5071667;28;20044;-80
2022/07/21 08:10:07;;;;;;;13.43;8.40;;;23.30;99.90;;;22.91;100.00;100723.34;5052738;28;20147;-80
2022/07/21 08:12:34;;;;;;;12.93;8.68;;;23.30;99.90;;;22.51;100.00;100721.78;5071612;28;20147;-80
2022/07/21 08:15:01;;;;;;;15.30;8.88;;;23.30;99.90;;;22.38;100.00;100723.00;5071487;28;20076;-80
2022/07/21 08:17:29;;;;;;;13.23;7.32;;;23.30;99.90;;;22.50;100.00;100728.41;5071613;28;20070;-79
2022/07/21 08:19:56;;;;;;;10.02;7.03;;;23.30;99.90;;;22.67;100.00;100719.19;5070654;28;20556;-80
2022/07/21 08:22:23;;;;;;;10.68;7.10;;;23.30;99.90;;;22.74;100.00;100719.81;5071463;28;20082;-80
2022/07/21 08:24:50;;;;;;;9.90;7.00;;;23.30;99.90;;;22.93;100.00;100729.44;5070910;28;20060;-80
2022/07/21 08:27:19;;;;;;;10.95;7.30;;;23.40;99.90;;;22.89;100.00;100725.53;5071274;28;20099;-80
2022/07/21 08:29:47;;;;;;;13.50;7.10;;;23.40;99.90;;;22.97;100.00;100724.22;5070459;28;20052;-80
2022/07/21 08:32:14;;;;;;;12.85;7.38;;;23.40;99.90;;;23.36;100.00;100711.00;5070997;28;20409;-80
2022/07/21 08:34:41;;;;;;;9.32;6.50;;;23.40;99.90;;;23.54;100.00;100714.47;5071163;28;20576;-80
2022/07/21 08:37:08;;;;;;;8.18;6.20;;;23.50;99.90;;;23.37;100.00;100722.94;5069690;28;20040;-80
2022/07/21 08:39:35;;;;;;;11.00;6.40;;;23.50;99.90;;;23.03;100.00;100726.81;5070182;28;20037;-80
2022/07/21 08:42:03;;;;;;;10.95;6.90;;;23.50;99.90;;;22.91;100.00;100734.44;5070939;28;20036;-80
2022/07/21 08:44:32;;;;;;;11.43;6.50;;;23.60;99.90;;;22.86;100.00;100731.59;5070896;28;20094;-80
2022/07/21 08:47:00;;;;;;;11.52;5.90;;;23.60;99.90;;;22.71;100.00;100732.25;5070927;28;20048;-80
2022/07/21 08:49:29;;;;;;;11.40;6.03;;;23.50;99.90;;;22.42;100.00;100737.19;5070017;28;20701;-80
2022/07/21 08:51:57;;;;;;;9.20;6.20;;;23.50;99.90;;;22.02;100.00;100736.34;5070815;28;20079;-80
2022/07/21 08:54:24;;;;;;;9.05;5.90;;;23.50;99.90;;;21.79;100.00;100731.88;5070724;28;20091;-80
2022/07/21 08:56:51;;;;;;;12.10;6.35;;;23.40;99.90;;;21.78;100.00;100737.66;5070719;28;20075;-80
2022/07/21 08:59:19;;;;;;;18.17;6.40;;;23.40;99.90;;;21.82;100.00;100736.09;5069931;28;20133;-80
2022/07/21 09:01:47;;;;;;;11.38;6.20;;;23.30;99.90;;;22.00;100.00;100727.47;5070477;28;20047;-80
2022/07/21 09:04:23;;;;;;;12.60;6.35;;;23.30;99.90;;;22.42;100.00;100726.09;5070507;28;20113;-80
2022/07/21 09:06:56;;;;;;;12.80;5.95;;;23.30;99.90;;;22.69;100.00;100719.75;5070195;28;20583;-80
2022/07/21 09:09:24;;;;;;;9.13;5.60;;;23.40;99.90;;;22.84;100.00;100719.91;5069620;28;20041;-81
2022/07/21 09:11:53;;;;;;;11.70;5.85;;;23.40;99.90;;;22.91;97.00;100723.34;5070314;28;20126;-81
2022/07/21 09:14:24;;;;;;;9.15;6.20;;;23.40;99.90;;;22.84;100.00;100717.13;5070389;28;20044;-81
2022/07/21 09:16:55;;;;;;;8.80;6.05;;;23.40;99.90;;;22.81;100.00;100723.25;5070414;28;20131;-81
2022/07/21 09:19:24;;;;;;;9.50;5.95;;;23.40;99.90;;;22.66;100.00;100732.22;5069692;28;20119;-81
2022/07/21 09:21:54;;;;;;;8.98;6.43;;;23.40;99.90;;;22.50;99.84;100733.13;5070418;28;20569;-81
2022/07/21 09:24:28;;;;;;;12.27;7.05;;;23.40;99.90;;;22.46;100.00;100732.81;5070591;28;20141;-81
2022/07/21 09:27:09;;;;;;;11.10;6.22;;;23.40;99.90;;;22.43;100.00;100722.25;5070178;28;20052;-81
2022/07/21 09:29:46;;;;;;;10.70;6.38;;;23.40;99.90;;;22.49;100.00;100721.22;5069446;28;20041;-81
2022/07/21 09:32:25;;;;;;;10.13;6.50;;;23.40;99.90;;;22.60;100.00;100725.78;5070054;28;20131;-82
2022/07/21 09:34:55;;;;;;;10.13;7.25;;;23.40;99.90;;;22.60;100.00;100724.94;5070018;28;20052;-82
2022/07/21 09:37:23;;;;;;;11.52;7.28;;;23.40;99.90;;;22.56;100.00;100730.16;5070136;28;20127;-81
2022/07/21 09:39:54;;;;;;;10.25;7.30;;;23.40;99.90;;;22.63;100.00;100733.56;5069047;28;20406;-81
2022/07/21 09:42:26;;;;;;;12.00;7.35;;;23.40;99.90;;;22.70;100.00;100727.00;5069736;28;20054;-81
2022/07/21 09:44:56;;;;;;;11.23;7.40;;;23.40;99.90;;;22.71;100.00;100723.94;5069835;28;20049;-81
2022/07/21 09:47:28;;;;;;;15.43;7.85;;;23.40;99.90;;;22.71;100.00;100728.66;5066849;28;20054;-81
2022/07/21 09:49:56;;;;;;;12.05;7.53;;;23.40;99.90;;;22.71;100.00;100723.09;5069154;28;20135;-81
2022/07/21 09:52:29;;;;;;;11.45;7.95;;;23.50;99.90;;;22.69;99.09;100723.34;5069885;28;20498;-81
2022/07/21 09:54:58;;;;;;;14.07;7.45;;;23.50;99.90;;;22.54;100.00;100729.59;5069891;28;20048;-81
2022/07/21 09:57:26;;;;;;;12.85;7.38;;;23.50;99.90;;;22.49;100.00;100732.31;5069376;28;20272;-81
2022/07/21 09:59:54;;;;;;;11.13;7.47;;;23.50;99.90;;;22.41;100.00;100730.81;5068992;28;20127;-81
2022/07/21 10:02:25;;;;;;;11.55;7.35;;;23.50;99.90;;;22.39;100.00;100733.00;5069809;28;20037;-81
2022/07/21 10:04:58;;;;;;;10.30;7.20;;;23.40;99.90;;;22.45;100.00;100733.91;5069661;28;20423;-80